DXB weather

Dubai International Airport
Dubai, Dubai Emirate, United Arab Emirates

Public forecast

Using degrees Celsius for public forecast. Weather courtesy of forecast.io.

METAR (pilot weather report)

Retrieved 2017/12/10 23:00 UTC (2 minutes ago):

OMDB 102300Z 17004KT CAVOK 19/08 Q1019 NOSIG

TAF (pilot weather forecast)

Retrieved 2017/12/10 18:00 UTC (5 hours ago):

TAF OMDB 101653Z 1018/1200 17005KT CAVOK BECMG 1106/1108 28010KT BECMG 1116/1118 20005KT